Kentucky Observed Data For Previous 48 Hours

Caption
Day and Hour Reservoir Elevation (behind dam)* Tailwater Elevation (below dam)* Average Hourly Discharge*
2/18/2019 1 AM CST 354.65 334.79 172,225
2/18/2019 2 AM CST 354.66 334.77 172,538
2/18/2019 3 AM CST 354.69 334.80 172,830
2/18/2019 4 AM CST 354.70 334.77 173,210
2/18/2019 5 AM CST 354.74 334.82 173,686
2/18/2019 6 AM CST 354.78 334.88 174,349
2/18/2019 7 AM CST 354.81 334.87 174,968
2/18/2019 8 AM CST 354.86 334.86 175,683
2/18/2019 9 AM CST 354.87 334.90 176,250
2/18/2019 10 AM CST 354.89 334.95 176,516
2/18/2019 11 AM CST 354.91 334.96 176,807
2/18/2019 12 PM CST 354.93 335.02 177,147
2/18/2019 1 PM CST 354.97 335.03 177,663
2/18/2019 2 PM CST 354.97 335.01 178,058
2/18/2019 3 PM CST 354.99 335.08 178,164
2/18/2019 4 PM CST 354.99 335.07 178,364
2/18/2019 5 PM CST 355.00 335.06 178,566
2/18/2019 6 PM CST 354.98 335.06 178,521
2/18/2019 7 PM CST 354.97 335.13 178,245
2/18/2019 8 PM CST 354.97 335.09 178,211
2/18/2019 9 PM CST 355.01 335.15 178,527
2/18/2019 10 PM CST 355.05 335.19 179,158
2/18/2019 11 PM CST 355.08 335.22 179,764
2/19/2019 12 AM CST 355.11 335.22 180,291
2/19/2019 1 AM CST 355.14 335.29 180,850
2/19/2019 2 AM CST 355.15 335.29 181,207
2/19/2019 3 AM CST 355.18 335.32 181,529
2/19/2019 4 AM CST 355.19 335.32 181,905
2/19/2019 5 AM CST 355.21 335.47 182,148
2/19/2019 6 AM CST 355.23 335.38 182,527
2/19/2019 7 AM CST 355.25 335.47 182,878
2/19/2019 8 AM CST 355.25 335.49 180,468
2/19/2019 9 AM CST 355.30 335.51 182,698
2/19/2019 10 AM CST 355.33 335.63 181,266
2/19/2019 11 AM CST 355.36 335.58 181,963
2/19/2019 12 PM CST 355.39 335.64 182,479
2/19/2019 1 PM CST 355.38 335.60 182,645
2/19/2019 2 PM CST 355.43 335.68 183,025
2/19/2019 3 PM CST 355.52 335.68 181,358
2/19/2019 4 PM CST 355.56 335.57 168,288
2/19/2019 5 PM CST 355.49 335.85 179,335
2/19/2019 6 PM CST 355.54 335.99 194,182
2/19/2019 7 PM CST 355.54 336.06 198,400
2/19/2019 8 PM CST 355.58 336.12 198,765
2/19/2019 9 PM CST 355.60 336.13 199,327
2/19/2019 10 PM CST 355.64 336.13 199,882
2/19/2019 11 PM CST 355.65 336.22 200,350
2/20/2019 12 AM CST 355.72 336.33 201,077
2/20/2019 1 AM CST 355.78 336.47 202,283
2/20/2019 2 AM CST 355.77 336.63 202,752
2/20/2019 3 AM CST 355.80 336.66 202,925
2/20/2019 4 AM CST 355.98 336.70 204,882
2/20/2019 5 AM CST 356.01 336.81 206,890
2/20/2019 6 AM CST 356.14 336.94 208,387
2/20/2019 7 AM CST 356.22 337.01 210,388
2/20/2019 8 AM CST 356.27 337.07 213,097
2/20/2019 9 AM CST 356.32 337.16 214,045

Elevations are in feet above sea level. Discharges are in cubic feet per second and are reported at the end of the hour.